createdAt,value
2023-04-16T00:01:50.212Z,47.56
2023-04-16T00:04:20.756Z,47.55
2023-04-16T00:06:53.549Z,47.75
2023-04-16T00:09:24.199Z,48.50
2023-04-16T00:11:54.404Z,49.12
2023-04-16T00:14:24.709Z,49.13
2023-04-16T00:16:55.504Z,49.41
2023-04-16T00:19:26.853Z,49.27
2023-04-16T00:21:57.242Z,49.41
2023-04-16T00:24:27.770Z,49.54
2023-04-16T00:26:58.886Z,49.90
2023-04-16T00:29:30.841Z,49.99
2023-04-16T00:32:01.298Z,50.42
2023-04-16T00:34:32.028Z,50.39
2023-04-16T00:37:02.356Z,50.88
2023-04-16T00:39:32.678Z,50.68
2023-04-16T00:42:02.941Z,51.04
2023-04-16T00:44:35.790Z,51.35
2023-04-16T00:47:08.597Z,51.13
2023-04-16T00:49:39.345Z,51.44
2023-04-16T00:52:10.041Z,51.36
2023-04-16T00:54:41.244Z,51.35
2023-04-16T00:57:12.131Z,51.64
2023-04-16T00:59:43.174Z,51.85
2023-04-16T01:02:14.264Z,51.92
2023-04-16T01:04:44.682Z,51.81
2023-04-16T01:07:14.890Z,51.97
2023-04-16T01:09:45.075Z,52.47
2023-04-16T01:12:15.418Z,52.57
2023-04-16T01:14:48.162Z,52.71
2023-04-16T01:17:18.769Z,52.79
2023-04-16T01:19:48.932Z,52.91
2023-04-16T01:22:19.082Z,53.10
2023-04-16T01:24:49.225Z,52.97
2023-04-16T01:27:19.899Z,52.87
2023-04-16T01:29:50.285Z,52.58
2023-04-16T01:32:23.907Z,52.85
2023-04-16T01:34:54.071Z,52.69
2023-04-16T01:37:24.225Z,52.83
2023-04-16T01:39:54.570Z,52.60
2023-04-16T01:42:25.036Z,52.42
2023-04-16T01:44:55.235Z,52.59
2023-04-16T01:47:25.540Z,52.46
2023-04-16T01:49:55.913Z,52.51
2023-04-16T01:52:26.288Z,52.45
2023-04-16T01:54:57.372Z,52.53
2023-04-16T01:57:27.599Z,52.58
2023-04-16T01:59:58.201Z,52.66
2023-04-16T02:02:28.944Z,52.84
2023-04-16T02:04:59.912Z,52.95
2023-04-16T02:07:31.354Z,53.12
2023-04-16T02:10:01.581Z,53.35
2023-04-16T02:12:32.081Z,53.59
2023-04-16T02:15:03.333Z,53.93
2023-04-16T02:17:33.712Z,54.04
2023-04-16T02:20:06.210Z,54.34
2023-04-16T02:22:36.732Z,54.40
2023-04-16T02:25:08.818Z,54.57
2023-04-16T02:27:39.236Z,54.72
2023-04-16T02:30:12.009Z,54.63
2023-04-16T02:32:42.724Z,54.69
2023-04-16T02:35:15.896Z,54.62
2023-04-16T02:37:46.513Z,54.56
2023-04-16T02:40:17.574Z,54.75
2023-04-16T02:42:47.784Z,54.48
2023-04-16T02:45:19.184Z,54.89
2023-04-16T02:47:50.743Z,54.92
2023-04-16T02:50:21.359Z,55.06
2023-04-16T02:52:52.348Z,54.77
2023-04-16T02:55:22.577Z,54.78
2023-04-16T02:57:54.021Z,54.52
2023-04-16T03:00:25.311Z,54.40
2023-04-16T03:02:55.886Z,54.32
2023-04-16T03:05:27.185Z,54.15
2023-04-16T03:07:57.336Z,53.89
2023-04-16T03:10:28.414Z,53.27
2023-04-16T03:12:59.193Z,52.35
2023-04-16T03:15:30.351Z,50.79
2023-04-16T03:18:01.401Z,48.82
2023-04-16T03:20:31.953Z,46.82
2023-04-16T03:23:02.347Z,44.71
2023-04-16T03:25:32.896Z,42.52
2023-04-16T03:28:03.608Z,40.64
2023-04-16T03:30:35.981Z,38.55
2023-04-16T03:33:06.613Z,36.77
2023-04-16T03:35:36.764Z,35.02
2023-04-16T03:38:07.612Z,33.92
2023-04-16T03:40:38.100Z,32.37
2023-04-16T03:43:08.283Z,30.68
2023-04-16T03:45:39.018Z,29.02
2023-04-16T03:48:09.932Z,28.04
2023-04-16T03:50:40.219Z,26.69
2023-04-16T03:53:10.575Z,26.02
2023-04-16T03:55:40.988Z,24.43
2023-04-16T03:58:11.404Z,23.75
2023-04-16T04:00:44.510Z,22.82
2023-04-16T04:03:16.830Z,21.64
2023-04-16T04:05:47.474Z,21.41
2023-04-16T04:08:18.112Z,20.22
2023-04-16T04:10:48.826Z,19.30
2023-04-16T04:13:19.039Z,17.93
2023-04-16T04:15:49.493Z,17.77
2023-04-16T04:18:20.116Z,16.64
2023-04-16T04:20:50.487Z,16.22
2023-04-16T04:23:20.898Z,16.81
2023-04-16T04:25:51.195Z,16.49
2023-04-16T04:28:22.405Z,16.38
2023-04-16T04:30:52.707Z,16.54
2023-04-16T04:33:23.135Z,16.48
2023-04-16T04:35:53.743Z,16.51
2023-04-16T04:38:25.074Z,16.43
2023-04-16T04:40:55.536Z,16.96
2023-04-16T04:43:25.935Z,16.37
2023-04-16T04:45:56.205Z,15.35
2023-04-16T04:48:27.386Z,14.91
2023-04-16T04:50:57.919Z,14.01
2023-04-16T04:53:28.434Z,13.29
2023-04-16T04:56:10.977Z,13.38
2023-04-16T04:58:43.954Z,12.90
2023-04-16T05:01:14.611Z,12.81
2023-04-16T05:03:50.848Z,12.90
2023-04-16T05:06:21.398Z,12.83
2023-04-16T05:08:51.812Z,13.23
2023-04-16T05:11:22.266Z,13.37
2023-04-16T05:13:52.493Z,13.32
2023-04-16T05:16:23.134Z,13.20
2023-04-16T05:18:55.897Z,12.87
2023-04-16T05:21:26.743Z,12.66
2023-04-16T05:23:57.474Z,11.96
2023-04-16T05:26:28.393Z,11.60
2023-04-16T05:28:58.673Z,11.62
2023-04-16T05:31:29.629Z,11.67
2023-04-16T05:34:00.818Z,10.90
2023-04-16T05:36:31.062Z,10.39
2023-04-16T05:39:01.255Z,10.12
2023-04-16T05:41:32.006Z,10.10
2023-04-16T05:44:02.297Z,10.57
2023-04-16T05:46:32.768Z,10.47
2023-04-16T05:49:03.364Z,9.72
2023-04-16T05:51:33.751Z,9.48
2023-04-16T05:54:04.283Z,8.73
2023-04-16T05:56:34.755Z,8.68
2023-04-16T05:59:05.334Z,8.39
2023-04-16T06:01:35.688Z,8.15
2023-04-16T06:04:06.582Z,7.81
2023-04-16T06:06:37.236Z,8.09
2023-04-16T06:09:09.571Z,7.73
2023-04-16T06:11:40.151Z,7.65
2023-04-16T06:14:12.546Z,7.71
2023-04-16T06:16:43.501Z,7.04
2023-04-16T06:19:14.247Z,7.38
2023-04-16T06:21:44.989Z,7.31
2023-04-16T06:24:15.614Z,7.34
2023-04-16T06:26:47.159Z,7.26
2023-04-16T06:29:17.658Z,6.92
2023-04-16T06:31:48.907Z,6.99
2023-04-16T06:34:21.036Z,6.59
2023-04-16T06:36:52.814Z,6.82
2023-04-16T06:39:23.496Z,6.82
2023-04-16T06:41:54.403Z,6.85
2023-04-16T06:44:25.166Z,7.01
2023-04-16T06:46:55.765Z,6.61
2023-04-16T06:49:26.497Z,7.08
2023-04-16T06:51:57.045Z,7.15
2023-04-16T06:54:28.343Z,7.21
2023-04-16T06:57:00.250Z,7.22
2023-04-16T06:59:31.085Z,6.94
2023-04-16T07:02:02.405Z,7.17
2023-04-16T07:04:41.120Z,7.25
2023-04-16T07:07:22.124Z,7.34
2023-04-16T07:10:18.672Z,7.51
2023-04-16T07:12:49.648Z,7.55
2023-04-16T07:15:32.867Z,7.47
2023-04-16T07:18:03.730Z,7.58
2023-04-16T07:20:34.260Z,7.61
2023-04-16T07:23:05.076Z,7.91
2023-04-16T07:25:35.591Z,7.75
2023-04-16T07:28:06.211Z,7.64
2023-04-16T07:30:36.734Z,7.53
2023-04-16T07:33:07.808Z,7.49
2023-04-16T07:35:38.245Z,7.69
2023-04-16T07:38:11.484Z,7.57
2023-04-16T07:40:44.730Z,7.42
2023-04-16T07:43:16.074Z,7.77
2023-04-16T07:45:46.783Z,7.93
2023-04-16T07:48:19.455Z,7.81
2023-04-16T07:50:50.039Z,8.09
2023-04-16T07:53:24.460Z,8.09
2023-04-16T07:55:54.719Z,8.00
2023-04-16T07:58:25.968Z,8.27
2023-04-16T08:00:57.858Z,8.40
2023-04-16T08:03:29.407Z,8.75
2023-04-16T08:06:01.100Z,9.57
2023-04-16T08:08:31.813Z,10.96
2023-04-16T08:11:03.722Z,12.26
2023-04-16T08:13:36.055Z,13.62
2023-04-16T08:16:08.156Z,15.16
2023-04-16T08:18:41.065Z,16.56
2023-04-16T08:21:12.642Z,17.63
2023-04-16T08:23:43.333Z,19.07
2023-04-16T08:26:13.687Z,20.27
2023-04-16T08:28:46.283Z,21.17
2023-04-16T08:31:17.021Z,22.06
2023-04-16T08:33:48.120Z,22.67
2023-04-16T08:36:19.004Z,23.37
2023-04-16T08:38:53.116Z,24.22
2023-04-16T08:41:24.219Z,24.51
2023-04-16T08:43:57.695Z,25.40
2023-04-16T08:46:29.482Z,25.38
2023-04-16T08:49:01.797Z,26.30
2023-04-16T08:54:31.663Z,26.83
2023-04-16T08:57:02.123Z,27.15
2023-04-16T08:59:32.700Z,27.58
2023-04-16T09:02:06.961Z,28.03
2023-04-16T09:04:38.623Z,27.96
2023-04-16T09:07:09.982Z,28.22
2023-04-16T09:09:41.581Z,28.50
2023-04-16T09:12:12.451Z,28.90
2023-04-16T09:14:44.180Z,29.14
2023-04-16T09:17:14.891Z,29.36
2023-04-16T09:19:45.963Z,29.16
2023-04-16T09:22:17.188Z,29.17
2023-04-16T09:24:47.806Z,29.26
2023-04-16T09:27:19.116Z,29.33
2023-04-16T09:29:49.884Z,29.43
2023-04-16T09:32:27.074Z,29.43
2023-04-16T09:34:58.855Z,29.36
2023-04-16T09:37:31.010Z,29.58
2023-04-16T09:40:03.975Z,30.02
2023-04-16T09:42:37.654Z,30.18
2023-04-16T09:45:09.904Z,30.32
2023-04-16T09:47:45.213Z,29.99
2023-04-16T09:50:18.581Z,30.09
2023-04-16T09:52:51.658Z,30.15
2023-04-16T09:55:27.792Z,30.09
2023-04-16T09:58:04.505Z,29.88
2023-04-16T10:00:35.456Z,30.03
2023-04-16T10:03:14.300Z,29.96
2023-04-16T10:05:45.106Z,30.11
2023-04-16T10:08:16.166Z,30.12
2023-04-16T10:10:47.147Z,30.09
2023-04-16T10:13:19.775Z,29.87
2023-04-16T10:15:51.903Z,30.00
2023-04-16T10:18:22.540Z,30.07
2023-04-16T10:20:53.178Z,30.11
2023-04-16T10:23:26.288Z,30.19
2023-04-16T10:25:57.810Z,30.09
2023-04-16T10:28:29.154Z,30.18
2023-04-16T10:31:00.546Z,30.06
2023-04-16T10:33:33.184Z,30.04
2023-04-16T10:36:11.261Z,29.86
2023-04-16T10:38:42.364Z,29.76
2023-04-16T10:41:12.915Z,29.74
2023-04-16T10:43:46.011Z,29.92
2023-04-16T10:46:24.831Z,30.03
2023-04-16T10:48:57.325Z,30.30
2023-04-16T10:51:31.850Z,30.42
2023-04-16T10:54:20.712Z,30.62
2023-04-16T10:56:51.801Z,30.80
2023-04-16T10:59:24.112Z,30.84
2023-04-16T11:01:55.902Z,30.86
2023-04-16T11:04:37.173Z,31.08
2023-04-16T11:07:16.089Z,31.20
2023-04-16T11:09:53.255Z,31.52
2023-04-16T11:12:26.946Z,31.38
2023-04-16T11:15:03.393Z,31.48
2023-04-16T11:17:39.938Z,31.81
2023-04-16T11:20:19.942Z,32.32
2023-04-16T11:22:52.049Z,32.68
2023-04-16T11:25:22.583Z,33.03
2023-04-16T11:27:53.499Z,32.92
2023-04-16T11:30:31.418Z,32.99
2023-04-16T11:33:04.424Z,33.06
2023-04-16T11:35:34.991Z,33.39
2023-04-16T11:38:07.015Z,33.82
2023-04-16T11:40:37.674Z,34.16
2023-04-16T11:43:15.563Z,34.24
2023-04-16T11:45:58.501Z,34.55
2023-04-16T11:48:48.043Z,34.86
2023-04-16T11:51:18.887Z,35.02
2023-04-16T11:53:52.559Z,34.94
2023-04-16T11:56:30.579Z,35.17
2023-04-16T11:59:14.827Z,35.26
2023-04-16T12:01:48.460Z,35.36
2023-04-16T12:04:19.927Z,35.19
2023-04-16T12:07:10.213Z,35.39
2023-04-16T12:09:41.835Z,35.43
2023-04-16T12:12:30.348Z,35.42
2023-04-16T12:15:03.252Z,35.51
2023-04-16T12:17:35.282Z,35.70
2023-04-16T12:20:09.719Z,35.53
2023-04-16T12:22:42.874Z,35.51
2023-04-16T12:25:14.585Z,35.34
2023-04-16T12:27:49.495Z,35.39
2023-04-16T12:30:25.977Z,35.36
2023-04-16T12:33:16.370Z,35.36
2023-04-16T12:35:46.820Z,35.50
2023-04-16T12:38:17.393Z,35.69
2023-04-16T12:40:48.185Z,35.88
2023-04-16T12:43:19.508Z,36.13
2023-04-16T12:45:51.214Z,36.23
2023-04-16T12:48:21.732Z,36.42
2023-04-16T12:50:54.557Z,36.46
2023-04-16T12:53:25.350Z,36.74
2023-04-16T12:55:55.991Z,36.66
2023-04-16T12:58:26.790Z,36.89
2023-04-16T13:00:57.294Z,36.81
2023-04-16T13:03:28.197Z,36.92
2023-04-16T13:05:59.134Z,37.15
2023-04-16T13:08:29.937Z,37.32
2023-04-16T13:11:00.759Z,37.50
2023-04-16T13:13:31.248Z,37.64
2023-04-16T13:16:03.806Z,37.65
2023-04-16T13:18:36.600Z,37.59
2023-04-16T13:21:09.673Z,37.79
2023-04-16T13:23:40.275Z,37.87
2023-04-16T13:26:12.945Z,38.06
2023-04-16T13:28:43.689Z,38.25
2023-04-16T13:31:15.515Z,38.11
2023-04-16T13:33:46.230Z,38.69
2023-04-16T13:36:17.412Z,39.15
2023-04-16T13:38:47.875Z,39.44
2023-04-16T13:41:18.657Z,39.70
2023-04-16T13:43:49.455Z,39.76
2023-04-16T13:46:22.780Z,39.78
2023-04-16T13:48:53.745Z,39.41
2023-04-16T13:51:24.175Z,39.40
2023-04-16T13:53:55.977Z,39.54
2023-04-16T13:56:26.880Z,39.66
2023-04-16T13:58:57.418Z,39.65
2023-04-16T14:01:28.952Z,39.71
2023-04-16T14:04:01.702Z,39.71
2023-04-16T14:06:33.034Z,39.68
2023-04-16T14:09:04.683Z,39.70
2023-04-16T14:11:35.264Z,39.98
2023-04-16T14:14:05.855Z,40.19
2023-04-16T14:16:39.103Z,40.29
2023-04-16T14:19:11.121Z,40.81
2023-04-16T14:21:44.925Z,40.98
2023-04-16T14:24:17.069Z,41.29
2023-04-16T14:26:48.093Z,41.68
2023-04-16T14:29:19.297Z,42.03
2023-04-16T14:31:50.514Z,41.98
2023-04-16T14:34:20.898Z,42.12
2023-04-16T14:36:54.567Z,42.17
2023-04-16T14:39:25.186Z,42.32
2023-04-16T14:41:55.975Z,42.41
2023-04-16T14:44:26.717Z,42.55
2023-04-16T14:47:04.675Z,42.85
2023-04-16T14:49:35.617Z,42.70
2023-04-16T14:52:10.712Z,42.96
2023-04-16T14:54:41.562Z,42.85
2023-04-16T14:57:12.582Z,43.06
2023-04-16T14:59:42.952Z,43.04
2023-04-16T15:02:16.005Z,43.03
2023-04-16T15:04:46.468Z,43.11
2023-04-16T15:07:20.026Z,43.33
2023-04-16T15:09:52.679Z,43.43
2023-04-16T15:12:23.420Z,43.55
2023-04-16T15:14:53.862Z,43.63
2023-04-16T15:17:24.235Z,43.85
2023-04-16T15:19:54.444Z,44.08
2023-04-16T15:22:25.131Z,44.29
2023-04-16T15:24:58.213Z,44.74
2023-04-16T15:27:29.658Z,44.76
2023-04-16T15:30:00.091Z,44.66
2023-04-16T15:32:31.404Z,44.75
2023-04-16T15:35:02.536Z,44.88
2023-04-16T15:37:33.347Z,44.87
2023-04-16T15:40:05.408Z,44.86
2023-04-16T15:42:36.766Z,45.35
2023-04-16T15:45:11.432Z,45.25
2023-04-16T15:47:45.093Z,45.27
2023-04-16T15:50:15.878Z,45.41
2023-04-16T15:52:48.577Z,45.92
2023-04-16T15:55:20.581Z,45.85
2023-04-16T15:57:52.798Z,46.01
2023-04-16T16:00:23.646Z,46.31
2023-04-16T16:02:54.322Z,46.54
2023-04-16T16:05:25.599Z,46.63
2023-04-16T16:07:56.192Z,46.40
2023-04-16T16:10:28.319Z,46.63
2023-04-16T16:13:01.658Z,46.76
2023-04-16T16:15:33.904Z,46.94
2023-04-16T16:18:09.659Z,47.01
2023-04-16T16:20:41.907Z,46.93
2023-04-16T16:23:14.687Z,47.13
2023-04-16T16:25:46.035Z,47.06
2023-04-16T16:28:17.724Z,47.44
2023-04-16T16:30:48.475Z,47.43
2023-04-16T16:33:20.008Z,47.44
2023-04-16T16:35:50.551Z,47.54
2023-04-16T16:38:23.396Z,47.80
2023-04-16T16:40:58.519Z,47.83
2023-04-16T16:43:30.316Z,47.86
2023-04-16T16:46:01.044Z,47.89
2023-04-16T16:48:31.782Z,48.06
2023-04-16T16:51:04.638Z,48.07
2023-04-16T16:53:36.928Z,48.25
2023-04-16T16:56:08.091Z,48.11
2023-04-16T16:58:38.608Z,48.30
2023-04-16T17:01:09.125Z,48.38
2023-04-16T17:03:41.542Z,48.25
2023-04-16T17:06:12.318Z,48.34
2023-04-16T17:08:43.100Z,48.50
2023-04-16T17:11:15.659Z,48.48
2023-04-16T17:13:45.970Z,48.97
2023-04-16T17:16:17.748Z,48.72
2023-04-16T17:18:48.401Z,48.98
2023-04-16T17:21:19.425Z,48.95
2023-04-16T17:23:51.260Z,48.98
2023-04-16T17:26:22.177Z,49.19
2023-04-16T17:28:53.002Z,49.19
2023-04-16T17:31:25.005Z,49.06
2023-04-16T17:33:56.954Z,49.22
2023-04-16T17:36:31.143Z,49.20
2023-04-16T17:39:01.463Z,49.23
2023-04-16T17:41:31.831Z,49.30
2023-04-16T17:44:02.081Z,49.33
2023-04-16T17:46:35.600Z,49.61
2023-04-16T17:49:05.889Z,49.69
2023-04-16T17:51:36.768Z,49.59
2023-04-16T17:54:07.586Z,49.71
2023-04-16T17:56:38.181Z,49.69
2023-04-16T17:59:08.600Z,49.94
2023-04-16T18:01:39.063Z,49.75
2023-04-16T18:04:10.590Z,49.75
2023-04-16T18:06:44.188Z,49.94
2023-04-16T18:09:15.425Z,50.13
2023-04-16T18:11:46.137Z,50.31
2023-04-16T18:14:19.730Z,50.57
2023-04-16T18:16:50.468Z,50.90
2023-04-16T18:19:23.094Z,51.23
2023-04-16T18:21:53.244Z,51.21
2023-04-16T18:24:23.727Z,51.30
2023-04-16T18:26:55.325Z,51.54
2023-04-16T18:29:27.036Z,51.55
2023-04-16T18:31:58.135Z,51.84
2023-04-16T18:34:29.791Z,51.91
2023-04-16T18:37:00.790Z,52.43
2023-04-16T18:39:36.153Z,53.00
2023-04-16T18:42:06.718Z,53.97
2023-04-16T18:44:37.168Z,54.98
2023-04-16T18:47:07.535Z,54.91
2023-04-16T18:49:38.982Z,55.13
2023-04-16T18:52:09.871Z,55.34
2023-04-16T18:54:44.488Z,55.40
2023-04-16T18:57:18.692Z,55.51
2023-04-16T18:59:50.233Z,55.73
2023-04-16T19:02:21.204Z,55.68
2023-04-16T19:04:51.721Z,55.85
2023-04-16T19:07:23.038Z,55.95
2023-04-16T19:09:53.636Z,56.36
2023-04-16T19:12:24.171Z,56.54
2023-04-16T19:14:54.562Z,56.95
2023-04-16T19:17:25.274Z,57.25
2023-04-16T19:19:55.705Z,57.44
2023-04-16T19:22:26.448Z,57.26
2023-04-16T19:24:58.374Z,57.35
2023-04-16T19:27:33.462Z,57.40
2023-04-16T19:30:10.549Z,57.48
2023-04-16T19:32:41.576Z,57.32
2023-04-16T19:35:13.355Z,57.40
2023-04-16T19:37:45.829Z,57.43
2023-04-16T19:40:16.693Z,57.53
2023-04-16T19:42:47.163Z,57.23
2023-04-16T19:45:18.223Z,57.50
2023-04-16T19:47:50.807Z,57.29
2023-04-16T19:50:21.282Z,57.09
2023-04-16T19:52:57.658Z,57.37
2023-04-16T19:55:28.183Z,57.31
2023-04-16T19:57:59.662Z,57.33
2023-04-16T20:00:30.033Z,57.01
2023-04-16T20:03:00.445Z,57.18
2023-04-16T20:05:33.292Z,57.01
2023-04-16T20:08:03.712Z,56.92
2023-04-16T20:10:33.917Z,56.94
2023-04-16T20:13:06.603Z,56.78
2023-04-16T20:15:37.999Z,57.04
2023-04-16T20:18:09.225Z,57.07
2023-04-16T20:20:39.575Z,56.95
2023-04-16T20:23:17.685Z,56.96
2023-04-16T20:25:50.073Z,56.88
2023-04-16T20:28:21.168Z,56.95
2023-04-16T20:30:52.168Z,56.77
2023-04-16T20:33:22.844Z,56.57
2023-04-16T20:35:54.349Z,56.75
2023-04-16T20:38:25.160Z,56.55
2023-04-16T20:41:06.114Z,56.75
2023-04-16T20:43:38.602Z,56.52
2023-04-16T20:46:09.851Z,56.47
2023-04-16T20:48:41.362Z,56.39
2023-04-16T20:51:14.363Z,56.35
2023-04-16T20:53:45.374Z,56.58
2023-04-16T20:56:15.547Z,56.45
2023-04-16T20:58:46.478Z,56.46
2023-04-16T21:01:19.133Z,56.64
2023-04-16T21:03:51.356Z,57.04
2023-04-16T21:06:22.374Z,57.44
2023-04-16T21:08:52.855Z,57.72
2023-04-16T21:11:23.183Z,57.62
2023-04-16T21:13:53.425Z,57.67
2023-04-16T21:16:24.428Z,57.67
2023-04-16T21:18:54.552Z,57.41
2023-04-16T21:21:25.643Z,57.36
2023-04-16T21:23:55.901Z,57.84
2023-04-16T21:26:26.565Z,57.36
2023-04-16T21:28:57.229Z,57.71
2023-04-16T21:31:27.979Z,57.80
2023-04-16T21:33:58.309Z,57.97
2023-04-16T21:36:29.019Z,57.96
2023-04-16T21:38:59.181Z,58.09
2023-04-16T21:41:29.581Z,57.98
2023-04-16T21:43:59.903Z,58.32
2023-04-16T21:46:30.240Z,58.24
2023-04-16T21:49:00.753Z,58.18
2023-04-16T21:51:31.610Z,58.36
2023-04-16T21:54:02.452Z,58.08
2023-04-16T21:56:32.739Z,58.19
2023-04-16T21:59:03.577Z,58.29
2023-04-16T22:01:35.251Z,58.57
2023-04-16T22:04:07.302Z,58.46
2023-04-16T22:06:37.696Z,58.39
2023-04-16T22:09:09.738Z,58.11
2023-04-16T22:11:40.542Z,57.84
2023-04-16T22:14:10.872Z,57.29
2023-04-16T22:16:41.708Z,57.38
2023-04-16T22:19:13.350Z,57.27
2023-04-16T22:21:44.096Z,57.45
2023-04-16T22:24:14.971Z,57.38
2023-04-16T22:26:45.401Z,57.39
2023-04-16T22:29:16.160Z,57.87
2023-04-16T22:31:46.700Z,57.76
2023-04-16T22:34:17.085Z,57.91
2023-04-16T22:36:48.002Z,58.08
2023-04-16T22:39:18.519Z,58.27
2023-04-16T22:41:49.903Z,58.42
2023-04-16T22:44:22.683Z,58.48
2023-04-16T22:46:53.395Z,58.67
2023-04-16T22:49:24.558Z,58.44
2023-04-16T22:51:54.755Z,58.14
2023-04-16T22:54:29.823Z,57.72
2023-04-16T22:57:00.699Z,57.51
2023-04-16T22:59:31.813Z,57.18
2023-04-16T23:02:02.646Z,57.11
2023-04-16T23:04:33.364Z,56.68
2023-04-16T23:07:03.623Z,56.55
2023-04-16T23:09:34.058Z,56.29
2023-04-16T23:12:04.538Z,56.34
2023-04-16T23:14:34.754Z,56.05
2023-04-16T23:17:05.487Z,56.01
2023-04-16T23:19:37.124Z,55.91
2023-04-16T23:22:07.376Z,55.94
2023-04-16T23:24:37.673Z,56.09
2023-04-16T23:27:08.549Z,55.95
2023-04-16T23:29:38.759Z,56.09
2023-04-16T23:32:09.293Z,55.92
2023-04-16T23:34:39.764Z,56.04
2023-04-16T23:37:10.514Z,56.13
2023-04-16T23:39:40.724Z,56.04
2023-04-16T23:42:11.315Z,56.24
2023-04-16T23:44:41.648Z,56.33
2023-04-16T23:47:12.427Z,56.21
2023-04-16T23:49:42.948Z,56.58
2023-04-16T23:52:14.793Z,56.75
2023-04-16T23:54:45.239Z,56.97
2023-04-16T23:57:15.531Z,56.97
2023-04-16T23:59:48.904Z,57.06
